sensor_id;sensor_type;location;lat;lon;timestamp;P1;durP1;ratioP1;P2;durP2;ratioP2
17570;SDS011;8903;52.220;20.978;2023-08-31T00:01:04;16.47;;;13.30;;
17570;SDS011;8903;52.220;20.978;2023-08-31T00:03:31;17.70;;;14.60;;
17570;SDS011;8903;52.220;20.978;2023-08-31T00:06:01;16.23;;;13.00;;
17570;SDS011;8903;52.220;20.978;2023-08-31T00:08:29;18.90;;;14.17;;
17570;SDS011;8903;52.220;20.978;2023-08-31T00:10:58;19.10;;;13.57;;
17570;SDS011;8903;52.220;20.978;2023-08-31T00:13:26;20.37;;;14.93;;
17570;SDS011;8903;52.220;20.978;2023-08-31T00:15:55;18.37;;;13.40;;
17570;SDS011;8903;52.220;20.978;2023-08-31T00:18:23;14.30;;;12.73;;
17570;SDS011;8903;52.220;20.978;2023-08-31T00:20:50;15.40;;;12.90;;
17570;SDS011;8903;52.220;20.978;2023-08-31T00:23:18;12.63;;;11.33;;
17570;SDS011;8903;52.220;20.978;2023-08-31T00:25:45;14.57;;;12.57;;
17570;SDS011;8903;52.220;20.978;2023-08-31T00:28:13;15.20;;;11.97;;
17570;SDS011;8903;52.220;20.978;2023-08-31T00:30:41;14.13;;;12.63;;
17570;SDS011;8903;52.220;20.978;2023-08-31T00:33:11;15.20;;;12.60;;
17570;SDS011;8903;52.220;20.978;2023-08-31T00:35:38;16.03;;;11.80;;
17570;SDS011;8903;52.220;20.978;2023-08-31T00:38:10;16.83;;;12.67;;
17570;SDS011;8903;52.220;20.978;2023-08-31T00:40:38;15.73;;;11.83;;
17570;SDS011;8903;52.220;20.978;2023-08-31T00:43:10;14.97;;;12.07;;
17570;SDS011;8903;52.220;20.978;2023-08-31T00:45:38;12.43;;;11.10;;
17570;SDS011;8903;52.220;20.978;2023-08-31T00:48:06;15.63;;;11.80;;
17570;SDS011;8903;52.220;20.978;2023-08-31T00:50:34;13.40;;;10.93;;
17570;SDS011;8903;52.220;20.978;2023-08-31T00:53:02;12.97;;;11.10;;
17570;SDS011;8903;52.220;20.978;2023-08-31T00:55:31;14.73;;;11.17;;
17570;SDS011;8903;52.220;20.978;2023-08-31T00:57:58;13.53;;;11.57;;
17570;SDS011;8903;52.220;20.978;2023-08-31T01:00:26;11.60;;;10.13;;
17570;SDS011;8903;52.220;20.978;2023-08-31T01:03:05;12.37;;;10.83;;
17570;SDS011;8903;52.220;20.978;2023-08-31T01:05:41;16.40;;;12.30;;
17570;SDS011;8903;52.220;20.978;2023-08-31T01:08:18;12.67;;;10.23;;
17570;SDS011;8903;52.220;20.978;2023-08-31T01:10:53;12.10;;;10.77;;
17570;SDS011;8903;52.220;20.978;2023-08-31T01:13:26;12.37;;;11.07;;
17570;SDS011;8903;52.220;20.978;2023-08-31T01:15:59;12.17;;;10.97;;
17570;SDS011;8903;52.220;20.978;2023-08-31T01:18:29;11.30;;;10.13;;
17570;SDS011;8903;52.220;20.978;2023-08-31T01:21:02;10.70;;;9.73;;
17570;SDS011;8903;52.220;20.978;2023-08-31T01:23:46;10.17;;;9.17;;
17570;SDS011;8903;52.220;20.978;2023-08-31T01:26:16;10.23;;;9.23;;
17570;SDS011;8903;52.220;20.978;2023-08-31T01:28:44;11.27;;;10.17;;
17570;SDS011;8903;52.220;20.978;2023-08-31T01:31:11;10.40;;;9.37;;
17570;SDS011;8903;52.220;20.978;2023-08-31T01:33:39;9.90;;;8.90;;
17570;SDS011;8903;52.220;20.978;2023-08-31T01:36:08;10.67;;;9.53;;
17570;SDS011;8903;52.220;20.978;2023-08-31T01:38:44;15.90;;;9.80;;
17570;SDS011;8903;52.220;20.978;2023-08-31T01:41:17;11.17;;;10.03;;
17570;SDS011;8903;52.220;20.978;2023-08-31T01:43:46;12.30;;;10.27;;
17570;SDS011;8903;52.220;20.978;2023-08-31T01:46:14;11.77;;;10.57;;
17570;SDS011;8903;52.220;20.978;2023-08-31T01:48:42;13.37;;;10.13;;
17570;SDS011;8903;52.220;20.978;2023-08-31T01:51:09;11.20;;;9.33;;
17570;SDS011;8903;52.220;20.978;2023-08-31T01:53:38;11.00;;;9.90;;
17570;SDS011;8903;52.220;20.978;2023-08-31T01:56:08;11.50;;;10.40;;
17570;SDS011;8903;52.220;20.978;2023-08-31T01:58:36;11.33;;;10.23;;
17570;SDS011;8903;52.220;20.978;2023-08-31T02:01:03;10.50;;;9.50;;
17570;SDS011;8903;52.220;20.978;2023-08-31T02:03:29;12.00;;;10.30;;
17570;SDS011;8903;52.220;20.978;2023-08-31T02:05:56;10.47;;;9.47;;
17570;SDS011;8903;52.220;20.978;2023-08-31T02:08:23;11.40;;;9.57;;
17570;SDS011;8903;52.220;20.978;2023-08-31T02:10:50;13.40;;;9.93;;
17570;SDS011;8903;52.220;20.978;2023-08-31T02:13:23;12.20;;;10.37;;
17570;SDS011;8903;52.220;20.978;2023-08-31T02:15:51;11.70;;;10.47;;
17570;SDS011;8903;52.220;20.978;2023-08-31T02:18:19;11.67;;;10.57;;
17570;SDS011;8903;52.220;20.978;2023-08-31T02:20:46;11.10;;;10.10;;
17570;SDS011;8903;52.220;20.978;2023-08-31T02:23:13;19.23;;;12.00;;
17570;SDS011;8903;52.220;20.978;2023-08-31T02:25:40;11.93;;;10.73;;
17570;SDS011;8903;52.220;20.978;2023-08-31T02:28:07;11.83;;;10.73;;
17570;SDS011;8903;52.220;20.978;2023-08-31T02:30:37;11.50;;;10.23;;
17570;SDS011;8903;52.220;20.978;2023-08-31T02:33:04;11.33;;;10.23;;
17570;SDS011;8903;52.220;20.978;2023-08-31T02:35:32;18.50;;;12.40;;
17570;SDS011;8903;52.220;20.978;2023-08-31T02:37:59;12.47;;;11.20;;
17570;SDS011;8903;52.220;20.978;2023-08-31T02:40:26;13.57;;;12.17;;
17570;SDS011;8903;52.220;20.978;2023-08-31T02:42:53;11.60;;;10.50;;
17570;SDS011;8903;52.220;20.978;2023-08-31T02:45:20;11.57;;;10.47;;
17570;SDS011;8903;52.220;20.978;2023-08-31T02:47:48;17.33;;;12.10;;
17570;SDS011;8903;52.220;20.978;2023-08-31T02:50:16;14.80;;;12.00;;
17570;SDS011;8903;52.220;20.978;2023-08-31T02:52:43;15.47;;;11.10;;
17570;SDS011;8903;52.220;20.978;2023-08-31T02:55:10;13.03;;;10.20;;
17570;SDS011;8903;52.220;20.978;2023-08-31T02:57:37;11.80;;;10.67;;
17570;SDS011;8903;52.220;20.978;2023-08-31T03:00:04;11.87;;;10.70;;
17570;SDS011;8903;52.220;20.978;2023-08-31T03:02:35;14.47;;;11.93;;
17570;SDS011;8903;52.220;20.978;2023-08-31T03:05:04;13.13;;;11.83;;
17570;SDS011;8903;52.220;20.978;2023-08-31T03:07:32;12.73;;;11.50;;
17570;SDS011;8903;52.220;20.978;2023-08-31T03:10:00;11.20;;;10.10;;
17570;SDS011;8903;52.220;20.978;2023-08-31T03:12:28;11.63;;;10.47;;
17570;SDS011;8903;52.220;20.978;2023-08-31T03:14:55;12.40;;;10.80;;
17570;SDS011;8903;52.220;20.978;2023-08-31T03:17:22;11.90;;;9.97;;
17570;SDS011;8903;52.220;20.978;2023-08-31T03:19:51;11.63;;;10.43;;
17570;SDS011;8903;52.220;20.978;2023-08-31T03:22:19;9.90;;;8.70;;
17570;SDS011;8903;52.220;20.978;2023-08-31T03:24:46;12.03;;;10.73;;
17570;SDS011;8903;52.220;20.978;2023-08-31T03:27:13;13.70;;;9.43;;
17570;SDS011;8903;52.220;20.978;2023-08-31T03:29:41;11.80;;;10.60;;
17570;SDS011;8903;52.220;20.978;2023-08-31T03:32:08;11.27;;;10.17;;
17570;SDS011;8903;52.220;20.978;2023-08-31T03:34:36;12.83;;;11.47;;
17570;SDS011;8903;52.220;20.978;2023-08-31T03:37:03;11.30;;;10.17;;
17570;SDS011;8903;52.220;20.978;2023-08-31T03:39:33;10.90;;;9.80;;
17570;SDS011;8903;52.220;20.978;2023-08-31T03:42:00;14.53;;;11.73;;
17570;SDS011;8903;52.220;20.978;2023-08-31T03:44:27;11.40;;;10.20;;
17570;SDS011;8903;52.220;20.978;2023-08-31T03:46:54;10.87;;;9.73;;
17570;SDS011;8903;52.220;20.978;2023-08-31T03:49:21;10.60;;;9.23;;
17570;SDS011;8903;52.220;20.978;2023-08-31T03:51:48;11.87;;;8.43;;
17570;SDS011;8903;52.220;20.978;2023-08-31T03:54:16;11.40;;;10.37;;
17570;SDS011;8903;52.220;20.978;2023-08-31T03:56:44;11.77;;;9.40;;
17570;SDS011;8903;52.220;20.978;2023-08-31T03:59:12;11.27;;;9.40;;
17570;SDS011;8903;52.220;20.978;2023-08-31T04:01:39;11.27;;;8.90;;
17570;SDS011;8903;52.220;20.978;2023-08-31T04:04:06;12.70;;;9.17;;
17570;SDS011;8903;52.220;20.978;2023-08-31T04:06:33;11.70;;;8.50;;
17570;SDS011;8903;52.220;20.978;2023-08-31T04:09:00;9.50;;;8.60;;
17570;SDS011;8903;52.220;20.978;2023-08-31T04:11:27;10.13;;;9.13;;
17570;SDS011;8903;52.220;20.978;2023-08-31T04:13:55;10.87;;;8.80;;
17570;SDS011;8903;52.220;20.978;2023-08-31T04:16:25;9.37;;;8.43;;
17570;SDS011;8903;52.220;20.978;2023-08-31T04:18:52;10.60;;;9.50;;
17570;SDS011;8903;52.220;20.978;2023-08-31T04:21:20;9.43;;;8.50;;
17570;SDS011;8903;52.220;20.978;2023-08-31T04:23:47;9.97;;;8.97;;
17570;SDS011;8903;52.220;20.978;2023-08-31T04:26:14;13.80;;;8.37;;
17570;SDS011;8903;52.220;20.978;2023-08-31T04:28:43;9.23;;;8.03;;
17570;SDS011;8903;52.220;20.978;2023-08-31T04:31:11;12.17;;;8.90;;
17570;SDS011;8903;52.220;20.978;2023-08-31T04:33:38;10.73;;;9.57;;
17570;SDS011;8903;52.220;20.978;2023-08-31T04:36:06;10.20;;;9.20;;
17570;SDS011;8903;52.220;20.978;2023-08-31T04:38:33;9.80;;;8.80;;
17570;SDS011;8903;52.220;20.978;2023-08-31T04:41:01;11.60;;;9.93;;
17570;SDS011;8903;52.220;20.978;2023-08-31T04:43:28;12.10;;;8.00;;
17570;SDS011;8903;52.220;20.978;2023-08-31T04:45:56;9.57;;;8.70;;
17570;SDS011;8903;52.220;20.978;2023-08-31T04:48:25;10.30;;;8.93;;
17570;SDS011;8903;52.220;20.978;2023-08-31T04:50:55;9.70;;;8.63;;
17570;SDS011;8903;52.220;20.978;2023-08-31T04:53:23;10.87;;;8.13;;
17570;SDS011;8903;52.220;20.978;2023-08-31T04:55:50;10.70;;;7.87;;
17570;SDS011;8903;52.220;20.978;2023-08-31T04:58:17;9.97;;;8.33;;
17570;SDS011;8903;52.220;20.978;2023-08-31T05:00:44;9.63;;;8.70;;
17570;SDS011;8903;52.220;20.978;2023-08-31T05:03:12;10.80;;;7.80;;
17570;SDS011;8903;52.220;20.978;2023-08-31T05:05:41;8.97;;;8.07;;
17570;SDS011;8903;52.220;20.978;2023-08-31T05:08:09;8.70;;;7.30;;
17570;SDS011;8903;52.220;20.978;2023-08-31T05:10:36;7.70;;;6.90;;
17570;SDS011;8903;52.220;20.978;2023-08-31T05:13:03;8.93;;;7.80;;
17570;SDS011;8903;52.220;20.978;2023-08-31T05:15:30;7.80;;;7.10;;
17570;SDS011;8903;52.220;20.978;2023-08-31T05:17:58;7.70;;;7.00;;
17570;SDS011;8903;52.220;20.978;2023-08-31T05:20:26;9.57;;;7.83;;
17570;SDS011;8903;52.220;20.978;2023-08-31T05:22:54;8.43;;;7.57;;
17570;SDS011;8903;52.220;20.978;2023-08-31T05:25:21;7.37;;;6.67;;
17570;SDS011;8903;52.220;20.978;2023-08-31T05:27:48;7.00;;;6.40;;
17570;SDS011;8903;52.220;20.978;2023-08-31T05:30:15;9.53;;;6.53;;
17570;SDS011;8903;52.220;20.978;2023-08-31T05:32:42;10.50;;;6.10;;
17570;SDS011;8903;52.220;20.978;2023-08-31T05:35:09;6.23;;;5.63;;
17570;SDS011;8903;52.220;20.978;2023-08-31T05:37:36;4.93;;;4.63;;
17570;SDS011;8903;52.220;20.978;2023-08-31T05:40:05;6.97;;;5.00;;
17570;SDS011;8903;52.220;20.978;2023-08-31T05:42:35;4.73;;;4.33;;
17570;SDS011;8903;52.220;20.978;2023-08-31T05:45:02;4.17;;;3.77;;
17570;SDS011;8903;52.220;20.978;2023-08-31T05:47:30;4.20;;;3.30;;
17570;SDS011;8903;52.220;20.978;2023-08-31T05:49:57;3.10;;;2.80;;
17570;SDS011;8903;52.220;20.978;2023-08-31T05:52:23;2.63;;;2.43;;
17570;SDS011;8903;52.220;20.978;2023-08-31T05:54:50;3.73;;;2.10;;
17570;SDS011;8903;52.220;20.978;2023-08-31T05:57:19;2.30;;;1.93;;
17570;SDS011;8903;52.220;20.978;2023-08-31T05:59:47;1.90;;;1.80;;
17570;SDS011;8903;52.220;20.978;2023-08-31T06:02:13;2.10;;;1.57;;
17570;SDS011;8903;52.220;20.978;2023-08-31T06:04:40;1.50;;;1.40;;
17570;SDS011;8903;52.220;20.978;2023-08-31T06:07:08;1.53;;;1.43;;
17570;SDS011;8903;52.220;20.978;2023-08-31T06:09:35;6.20;;;2.20;;
17570;SDS011;8903;52.220;20.978;2023-08-31T06:12:03;3.40;;;2.33;;
17570;SDS011;8903;52.220;20.978;2023-08-31T06:14:33;1.70;;;1.50;;
17570;SDS011;8903;52.220;20.978;2023-08-31T06:17:00;3.63;;;1.30;;
17570;SDS011;8903;52.220;20.978;2023-08-31T06:19:28;1.70;;;1.57;;
17570;SDS011;8903;52.220;20.978;2023-08-31T06:21:55;3.20;;;2.30;;
17570;SDS011;8903;52.220;20.978;2023-08-31T06:24:22;1.90;;;1.70;;
17570;SDS011;8903;52.220;20.978;2023-08-31T06:26:49;2.73;;;1.90;;
17570;SDS011;8903;52.220;20.978;2023-08-31T06:29:17;2.73;;;2.00;;
17570;SDS011;8903;52.220;20.978;2023-08-31T06:31:45;2.73;;;2.07;;
17570;SDS011;8903;52.220;20.978;2023-08-31T06:34:12;3.60;;;1.93;;
17570;SDS011;8903;52.220;20.978;2023-08-31T06:36:39;3.63;;;1.60;;
17570;SDS011;8903;52.220;20.978;2023-08-31T06:39:07;2.73;;;1.87;;
17570;SDS011;8903;52.220;20.978;2023-08-31T06:41:34;2.73;;;1.70;;
17570;SDS011;8903;52.220;20.978;2023-08-31T06:44:01;9.33;;;2.13;;
17570;SDS011;8903;52.220;20.978;2023-08-31T06:46:29;1.90;;;1.80;;
17570;SDS011;8903;52.220;20.978;2023-08-31T06:49:00;3.50;;;1.70;;
17570;SDS011;8903;52.220;20.978;2023-08-31T06:51:30;2.63;;;2.23;;
17570;SDS011;8903;52.220;20.978;2023-08-31T06:53:57;2.43;;;1.93;;
17570;SDS011;8903;52.220;20.978;2023-08-31T06:56:30;1.70;;;1.47;;
17570;SDS011;8903;52.220;20.978;2023-08-31T06:58:57;3.17;;;2.53;;
17570;SDS011;8903;52.220;20.978;2023-08-31T07:01:24;3.03;;;2.60;;
17570;SDS011;8903;52.220;20.978;2023-08-31T07:03:55;4.87;;;2.57;;
17570;SDS011;8903;52.220;20.978;2023-08-31T07:06:24;6.33;;;3.30;;
17570;SDS011;8903;52.220;20.978;2023-08-31T07:08:51;3.00;;;2.80;;
17570;SDS011;8903;52.220;20.978;2023-08-31T07:11:19;3.30;;;2.33;;
17570;SDS011;8903;52.220;20.978;2023-08-31T07:13:46;6.13;;;3.90;;
17570;SDS011;8903;52.220;20.978;2023-08-31T07:16:13;3.13;;;2.40;;
17570;SDS011;8903;52.220;20.978;2023-08-31T07:18:40;5.57;;;2.93;;
17570;SDS011;8903;52.220;20.978;2023-08-31T07:21:07;3.90;;;3.53;;
17570;SDS011;8903;52.220;20.978;2023-08-31T07:23:36;7.77;;;3.53;;
17570;SDS011;8903;52.220;20.978;2023-08-31T07:26:03;6.87;;;3.07;;
17570;SDS011;8903;52.220;20.978;2023-08-31T07:28:30;7.23;;;3.30;;
17570;SDS011;8903;52.220;20.978;2023-08-31T07:31:00;2.87;;;2.67;;
17570;SDS011;8903;52.220;20.978;2023-08-31T07:33:28;3.10;;;2.90;;
17570;SDS011;8903;52.220;20.978;2023-08-31T07:35:56;4.50;;;3.70;;
17570;SDS011;8903;52.220;20.978;2023-08-31T07:38:23;8.30;;;3.60;;
17570;SDS011;8903;52.220;20.978;2023-08-31T07:40:54;7.67;;;3.30;;
17570;SDS011;8903;52.220;20.978;2023-08-31T07:43:22;6.40;;;3.10;;
17570;SDS011;8903;52.220;20.978;2023-08-31T07:45:49;2.83;;;2.50;;
17570;SDS011;8903;52.220;20.978;2023-08-31T07:48:20;2.70;;;2.50;;
17570;SDS011;8903;52.220;20.978;2023-08-31T07:50:50;2.27;;;2.07;;
17570;SDS011;8903;52.220;20.978;2023-08-31T07:53:19;2.70;;;2.50;;
17570;SDS011;8903;52.220;20.978;2023-08-31T07:55:51;7.50;;;2.40;;
17570;SDS011;8903;52.220;20.978;2023-08-31T07:58:23;2.17;;;2.07;;
17570;SDS011;8903;52.220;20.978;2023-08-31T08:00:52;2.57;;;2.37;;
17570;SDS011;8903;52.220;20.978;2023-08-31T08:03:19;1.90;;;1.80;;
17570;SDS011;8903;52.220;20.978;2023-08-31T08:05:49;3.23;;;2.63;;
17570;SDS011;8903;52.220;20.978;2023-08-31T08:08:16;2.90;;;2.50;;
17570;SDS011;8903;52.220;20.978;2023-08-31T08:10:53;4.00;;;1.80;;
17570;SDS011;8903;52.220;20.978;2023-08-31T08:13:22;7.33;;;2.60;;
17570;SDS011;8903;52.220;20.978;2023-08-31T08:15:49;3.30;;;2.40;;
17570;SDS011;8903;52.220;20.978;2023-08-31T08:18:17;6.73;;;2.00;;
17570;SDS011;8903;52.220;20.978;2023-08-31T08:20:46;3.90;;;1.80;;
17570;SDS011;8903;52.220;20.978;2023-08-31T08:23:14;4.93;;;1.97;;
17570;SDS011;8903;52.220;20.978;2023-08-31T08:25:41;1.37;;;1.27;;
17570;SDS011;8903;52.220;20.978;2023-08-31T08:28:08;3.60;;;2.07;;
17570;SDS011;8903;52.220;20.978;2023-08-31T08:30:37;1.67;;;1.20;;
17570;SDS011;8903;52.220;20.978;2023-08-31T08:33:04;3.30;;;2.00;;
17570;SDS011;8903;52.220;20.978;2023-08-31T08:35:31;2.70;;;2.13;;
17570;SDS011;8903;52.220;20.978;2023-08-31T08:37:59;2.50;;;1.70;;
17570;SDS011;8903;52.220;20.978;2023-08-31T08:40:27;2.27;;;1.87;;
17570;SDS011;8903;52.220;20.978;2023-08-31T08:42:54;1.70;;;1.60;;
17570;SDS011;8903;52.220;20.978;2023-08-31T08:45:23;2.40;;;1.53;;
17570;SDS011;8903;52.220;20.978;2023-08-31T08:47:53;2.20;;;2.10;;
17570;SDS011;8903;52.220;20.978;2023-08-31T08:50:23;2.40;;;2.20;;
17570;SDS011;8903;52.220;20.978;2023-08-31T08:52:51;5.43;;;2.40;;
17570;SDS011;8903;52.220;20.978;2023-08-31T08:55:18;2.83;;;2.07;;
17570;SDS011;8903;52.220;20.978;2023-08-31T08:57:48;2.67;;;2.37;;
17570;SDS011;8903;52.220;20.978;2023-08-31T09:00:15;5.43;;;2.23;;
17570;SDS011;8903;52.220;20.978;2023-08-31T09:02:42;2.27;;;2.07;;
17570;SDS011;8903;52.220;20.978;2023-08-31T09:05:12;2.63;;;2.43;;
17570;SDS011;8903;52.220;20.978;2023-08-31T09:07:46;3.10;;;2.00;;
17570;SDS011;8903;52.220;20.978;2023-08-31T09:10:37;4.20;;;2.60;;
17570;SDS011;8903;52.220;20.978;2023-08-31T09:13:06;6.97;;;3.63;;
17570;SDS011;8903;52.220;20.978;2023-08-31T09:15:39;2.43;;;2.23;;
17570;SDS011;8903;52.220;20.978;2023-08-31T09:18:07;5.27;;;2.30;;
17570;SDS011;8903;52.220;20.978;2023-08-31T09:20:45;2.73;;;2.23;;
17570;SDS011;8903;52.220;20.978;2023-08-31T09:23:13;3.73;;;2.10;;
17570;SDS011;8903;52.220;20.978;2023-08-31T09:25:41;3.90;;;2.10;;
17570;SDS011;8903;52.220;20.978;2023-08-31T09:28:10;3.07;;;2.87;;
17570;SDS011;8903;52.220;20.978;2023-08-31T09:30:37;2.17;;;2.07;;
17570;SDS011;8903;52.220;20.978;2023-08-31T09:33:06;4.07;;;2.70;;
17570;SDS011;8903;52.220;20.978;2023-08-31T09:35:38;2.70;;;2.50;;
17570;SDS011;8903;52.220;20.978;2023-08-31T09:38:08;2.80;;;1.97;;
17570;SDS011;8903;52.220;20.978;2023-08-31T09:40:36;2.40;;;1.60;;
17570;SDS011;8903;52.220;20.978;2023-08-31T09:43:03;2.23;;;1.73;;
17570;SDS011;8903;52.220;20.978;2023-08-31T09:45:31;6.07;;;2.50;;
17570;SDS011;8903;52.220;20.978;2023-08-31T09:47:59;5.43;;;2.70;;
17570;SDS011;8903;52.220;20.978;2023-08-31T09:50:29;2.00;;;1.80;;
17570;SDS011;8903;52.220;20.978;2023-08-31T09:52:58;3.13;;;2.30;;
17570;SDS011;8903;52.220;20.978;2023-08-31T09:55:30;4.70;;;2.17;;
17570;SDS011;8903;52.220;20.978;2023-08-31T09:57:59;2.40;;;1.90;;
17570;SDS011;8903;52.220;20.978;2023-08-31T10:00:28;2.83;;;2.27;;
17570;SDS011;8903;52.220;20.978;2023-08-31T10:03:00;4.30;;;2.70;;
17570;SDS011;8903;52.220;20.978;2023-08-31T10:05:30;7.30;;;2.13;;
17570;SDS011;8903;52.220;20.978;2023-08-31T10:07:58;3.07;;;2.40;;
17570;SDS011;8903;52.220;20.978;2023-08-31T10:10:26;3.63;;;2.30;;
17570;SDS011;8903;52.220;20.978;2023-08-31T10:12:56;4.00;;;2.20;;
17570;SDS011;8903;52.220;20.978;2023-08-31T10:15:24;4.80;;;2.03;;
17570;SDS011;8903;52.220;20.978;2023-08-31T10:17:57;4.13;;;2.27;;
17570;SDS011;8903;52.220;20.978;2023-08-31T10:20:26;2.87;;;2.10;;
17570;SDS011;8903;52.220;20.978;2023-08-31T10:22:56;2.47;;;2.20;;
17570;SDS011;8903;52.220;20.978;2023-08-31T10:25:23;2.27;;;2.07;;
17570;SDS011;8903;52.220;20.978;2023-08-31T10:27:52;3.73;;;1.87;;
17570;SDS011;8903;52.220;20.978;2023-08-31T10:30:27;2.57;;;2.03;;
17570;SDS011;8903;52.220;20.978;2023-08-31T10:33:02;2.37;;;2.20;;
17570;SDS011;8903;52.220;20.978;2023-08-31T10:35:48;2.47;;;2.10;;
17570;SDS011;8903;52.220;20.978;2023-08-31T10:38:17;2.70;;;2.50;;
17570;SDS011;8903;52.220;20.978;2023-08-31T10:41:00;4.30;;;2.13;;
17570;SDS011;8903;52.220;20.978;2023-08-31T10:43:42;5.63;;;2.30;;
17570;SDS011;8903;52.220;20.978;2023-08-31T10:46:16;4.30;;;2.53;;
17570;SDS011;8903;52.220;20.978;2023-08-31T10:49:12;2.40;;;2.20;;
17570;SDS011;8903;52.220;20.978;2023-08-31T10:51:41;8.07;;;3.10;;
17570;SDS011;8903;52.220;20.978;2023-08-31T10:54:10;3.33;;;2.40;;
17570;SDS011;8903;52.220;20.978;2023-08-31T10:56:51;2.93;;;2.67;;
17570;SDS011;8903;52.220;20.978;2023-08-31T10:59:21;2.60;;;2.40;;
17570;SDS011;8903;52.220;20.978;2023-08-31T11:01:52;4.53;;;3.30;;
17570;SDS011;8903;52.220;20.978;2023-08-31T11:04:21;5.27;;;2.70;;
17570;SDS011;8903;52.220;20.978;2023-08-31T11:06:50;3.50;;;3.13;;
17570;SDS011;8903;52.220;20.978;2023-08-31T11:09:42;3.70;;;2.60;;
17570;SDS011;8903;52.220;20.978;2023-08-31T11:12:10;3.70;;;3.17;;
17570;SDS011;8903;52.220;20.978;2023-08-31T11:14:38;4.03;;;2.50;;
17570;SDS011;8903;52.220;20.978;2023-08-31T11:17:07;330.80;;;43.53;;
17570;SDS011;8903;52.220;20.978;2023-08-31T11:19:34;2.63;;;2.40;;
17570;SDS011;8903;52.220;20.978;2023-08-31T11:22:03;3.20;;;2.80;;
17570;SDS011;8903;52.220;20.978;2023-08-31T11:24:34;3.83;;;3.23;;
17570;SDS011;8903;52.220;20.978;2023-08-31T11:27:02;3.73;;;2.70;;
17570;SDS011;8903;52.220;20.978;2023-08-31T11:29:36;3.80;;;2.63;;
17570;SDS011;8903;52.220;20.978;2023-08-31T11:32:03;4.73;;;2.60;;
17570;SDS011;8903;52.220;20.978;2023-08-31T11:34:32;10.47;;;3.43;;
17570;SDS011;8903;52.220;20.978;2023-08-31T11:37:01;3.70;;;2.70;;
17570;SDS011;8903;52.220;20.978;2023-08-31T11:39:29;12.97;;;4.00;;
17570;SDS011;8903;52.220;20.978;2023-08-31T11:41:56;3.03;;;2.63;;
17570;SDS011;8903;52.220;20.978;2023-08-31T11:44:23;36.60;;;5.60;;
17570;SDS011;8903;52.220;20.978;2023-08-31T11:46:51;2.83;;;2.60;;
17570;SDS011;8903;52.220;20.978;2023-08-31T11:49:19;2.97;;;2.33;;
17570;SDS011;8903;52.220;20.978;2023-08-31T11:51:48;13.07;;;4.47;;
17570;SDS011;8903;52.220;20.978;2023-08-31T11:54:16;9.17;;;3.10;;
17570;SDS011;8903;52.220;20.978;2023-08-31T11:56:44;4.20;;;3.80;;
17570;SDS011;8903;52.220;20.978;2023-08-31T11:59:15;2.83;;;2.63;;
17570;SDS011;8903;52.220;20.978;2023-08-31T12:01:42;3.43;;;2.83;;
17570;SDS011;8903;52.220;20.978;2023-08-31T12:04:10;3.83;;;3.53;;
17570;SDS011;8903;52.220;20.978;2023-08-31T12:06:38;2.67;;;2.47;;
17570;SDS011;8903;52.220;20.978;2023-08-31T12:09:08;3.37;;;3.17;;
17570;SDS011;8903;52.220;20.978;2023-08-31T12:11:35;3.57;;;3.10;;
17570;SDS011;8903;52.220;20.978;2023-08-31T12:14:03;9.50;;;3.93;;
17570;SDS011;8903;52.220;20.978;2023-08-31T12:16:44;73.20;;;9.17;;
17570;SDS011;8903;52.220;20.978;2023-08-31T12:19:11;4.97;;;3.20;;
17570;SDS011;8903;52.220;20.978;2023-08-31T12:21:38;3.10;;;2.80;;
17570;SDS011;8903;52.220;20.978;2023-08-31T12:24:07;4.67;;;3.13;;
17570;SDS011;8903;52.220;20.978;2023-08-31T12:26:34;3.33;;;2.90;;
17570;SDS011;8903;52.220;20.978;2023-08-31T12:29:01;5.70;;;2.80;;
17570;SDS011;8903;52.220;20.978;2023-08-31T12:31:30;6.50;;;3.20;;
17570;SDS011;8903;52.220;20.978;2023-08-31T12:33:57;2.83;;;2.63;;
17570;SDS011;8903;52.220;20.978;2023-08-31T12:36:25;2.60;;;2.40;;
17570;SDS011;8903;52.220;20.978;2023-08-31T12:38:52;20.77;;;5.07;;
17570;SDS011;8903;52.220;20.978;2023-08-31T12:41:20;4.10;;;2.90;;
17570;SDS011;8903;52.220;20.978;2023-08-31T12:43:47;3.10;;;2.80;;
17570;SDS011;8903;52.220;20.978;2023-08-31T12:46:14;4.27;;;2.40;;
17570;SDS011;8903;52.220;20.978;2023-08-31T12:48:42;4.17;;;3.57;;
17570;SDS011;8903;52.220;20.978;2023-08-31T12:51:09;2.60;;;2.40;;
17570;SDS011;8903;52.220;20.978;2023-08-31T12:53:39;3.37;;;3.10;;
17570;SDS011;8903;52.220;20.978;2023-08-31T12:56:06;5.53;;;5.00;;
17570;SDS011;8903;52.220;20.978;2023-08-31T12:58:34;3.40;;;3.13;;
17570;SDS011;8903;52.220;20.978;2023-08-31T13:01:01;3.23;;;2.93;;
17570;SDS011;8903;52.220;20.978;2023-08-31T13:03:28;5.60;;;3.47;;
17570;SDS011;8903;52.220;20.978;2023-08-31T13:05:55;4.60;;;3.70;;
17570;SDS011;8903;52.220;20.978;2023-08-31T13:08:22;6.23;;;3.30;;
17570;SDS011;8903;52.220;20.978;2023-08-31T13:10:52;3.73;;;3.47;;
17570;SDS011;8903;52.220;20.978;2023-08-31T13:13:19;5.60;;;3.40;;
17570;SDS011;8903;52.220;20.978;2023-08-31T13:15:47;4.77;;;3.23;;
17570;SDS011;8903;52.220;20.978;2023-08-31T13:18:15;4.37;;;3.97;;
17570;SDS011;8903;52.220;20.978;2023-08-31T13:20:48;3.17;;;2.87;;
17570;SDS011;8903;52.220;20.978;2023-08-31T13:23:15;10.50;;;4.07;;
17570;SDS011;8903;52.220;20.978;2023-08-31T13:25:42;5.90;;;3.40;;
17570;SDS011;8903;52.220;20.978;2023-08-31T13:28:10;3.10;;;2.80;;
17570;SDS011;8903;52.220;20.978;2023-08-31T13:30:37;11.27;;;3.17;;
17570;SDS011;8903;52.220;20.978;2023-08-31T13:33:06;3.23;;;3.03;;
17570;SDS011;8903;52.220;20.978;2023-08-31T13:35:33;4.70;;;3.03;;
17570;SDS011;8903;52.220;20.978;2023-08-31T13:38:00;6.80;;;3.30;;
17570;SDS011;8903;52.220;20.978;2023-08-31T13:40:28;4.17;;;3.47;;
17570;SDS011;8903;52.220;20.978;2023-08-31T13:42:55;4.40;;;2.60;;
17570;SDS011;8903;52.220;20.978;2023-08-31T13:45:26;3.50;;;3.20;;
17570;SDS011;8903;52.220;20.978;2023-08-31T13:47:53;4.00;;;2.93;;
17570;SDS011;8903;52.220;20.978;2023-08-31T13:50:22;105.63;;;18.87;;
17570;SDS011;8903;52.220;20.978;2023-08-31T13:52:49;3.37;;;3.17;;
17570;SDS011;8903;52.220;20.978;2023-08-31T13:55:16;3.43;;;3.17;;
17570;SDS011;8903;52.220;20.978;2023-08-31T13:57:43;4.20;;;3.53;;
17570;SDS011;8903;52.220;20.978;2023-08-31T14:00:11;7.33;;;3.53;;
17570;SDS011;8903;52.220;20.978;2023-08-31T14:02:39;4.33;;;3.30;;
17570;SDS011;8903;52.220;20.978;2023-08-31T14:05:07;7.13;;;3.73;;
17570;SDS011;8903;52.220;20.978;2023-08-31T14:07:36;10.20;;;4.70;;
17570;SDS011;8903;52.220;20.978;2023-08-31T14:10:04;7.60;;;4.13;;
17570;SDS011;8903;52.220;20.978;2023-08-31T14:12:32;6.13;;;4.97;;
17570;SDS011;8903;52.220;20.978;2023-08-31T14:14:59;9.27;;;5.90;;
17570;SDS011;8903;52.220;20.978;2023-08-31T14:17:29;5.17;;;4.77;;
17570;SDS011;8903;52.220;20.978;2023-08-31T14:19:58;5.10;;;4.60;;
17570;SDS011;8903;52.220;20.978;2023-08-31T14:22:27;4.53;;;4.03;;
17570;SDS011;8903;52.220;20.978;2023-08-31T14:24:56;5.57;;;5.07;;
17570;SDS011;8903;52.220;20.978;2023-08-31T14:27:24;6.70;;;4.73;;
17570;SDS011;8903;52.220;20.978;2023-08-31T14:29:52;4.13;;;3.83;;
17570;SDS011;8903;52.220;20.978;2023-08-31T14:32:20;5.50;;;3.43;;
17570;SDS011;8903;52.220;20.978;2023-08-31T14:34:47;5.90;;;4.50;;
17570;SDS011;8903;52.220;20.978;2023-08-31T14:37:14;5.70;;;5.10;;
17570;SDS011;8903;52.220;20.978;2023-08-31T14:39:42;6.50;;;5.50;;
17570;SDS011;8903;52.220;20.978;2023-08-31T14:42:11;7.23;;;5.47;;
17570;SDS011;8903;52.220;20.978;2023-08-31T14:44:40;7.23;;;6.63;;
17570;SDS011;8903;52.220;20.978;2023-08-31T14:47:09;7.60;;;6.80;;
17570;SDS011;8903;52.220;20.978;2023-08-31T14:49:38;8.27;;;7.00;;